KLM714 SMJP-EHAM
Flight info
| Callsign | KLM714 |
|---|---|
| Flight time | N/A |
| Altitude | 33000 |
| Route | TODOL DCT 0730N05400W 0927N05300W 13N050W/N0493F350 DCT QUETN/M084F350 DCT 19N045W 24N040W 28N035W 31N030W 35N025W/M084F370 38N020W DCT BANAL DCT KOPAS/N0490F380 DCT PITAX/M084F370 DCT UMLER UN734 UMOXA/N0488F370 DCT AMPOP DCT SIDDI DCT DAWLY DCT GIBSO L620 SAM M140 DVR L18 VABIK Q70 KOK DCT DENUT |
| Aircraft | B77W/H-SDE1E2E3FGHIJ2J3J4J5M1RWXY/LB1D1 |
Departure
| Time | 2026-05-04 01:54 |
|---|---|
| Airport | Johan Adolf Pengel International Airport (SMJP) |
Arrival
| Time | N/A |
|---|---|
| Airport | Amsterdam Airport Schiphol (EHAM) |
| Time | Latitude | Longitude | Altitude | Speed | Heading |
|---|---|---|---|---|---|
| 2026-05-04 01:28 | 5.45518 | -55.19805 | 66 ft | 0 kts | 0° |
| 2026-05-04 01:47 | 5.45523 | -55.19805 | 66 ft | 0 kts | 9° |
| 2026-05-04 01:47 | 5.45529 | -55.19802 | 66 ft | 2 kts | 24° |
| 2026-05-04 01:48 | 5.45541 | -55.19785 | 66 ft | 4 kts | 77° |
| 2026-05-04 01:48 | 5.45532 | -55.19754 | 65 ft | 0 kts | 114° |
| 2026-05-04 01:48 | 5.45530 | -55.19750 | 65 ft | 2 kts | 120° |
| 2026-05-04 01:48 | 5.45507 | -55.19738 | 65 ft | 5 kts | 173° |
| 2026-05-04 01:49 | 5.45461 | -55.19759 | 66 ft | 6 kts | 228° |
| 2026-05-04 01:49 | 5.45446 | -55.19812 | 66 ft | 11 kts | 264° |
| 2026-05-04 01:49 | 5.45443 | -55.19928 | 66 ft | 21 kts | 270° |
| 2026-05-04 01:49 | 5.45443 | -55.20091 | 66 ft | 24 kts | 270° |
| 2026-05-04 01:50 | 5.45440 | -55.20266 | 67 ft | 22 kts | 267° |
| 2026-05-04 01:50 | 5.45399 | -55.20335 | 67 ft | 0 kts | 191° |
| 2026-05-04 01:52 | 5.45392 | -55.20336 | 67 ft | 5 kts | 188° |
| 2026-05-04 01:52 | 5.45303 | -55.20324 | 67 ft | 17 kts | 148° |
| 2026-05-04 01:53 | 5.45273 | -55.20271 | 67 ft | 0 kts | 94° |
| 2026-05-04 01:53 | 5.45273 | -55.20181 | 67 ft | 40 kts | 89° |
| 2026-05-04 01:54 | 5.45279 | -55.19696 | 66 ft | 97 kts | 89° |
| 2026-05-04 01:54 | 5.45283 | -55.18849 | 68 ft | 144 kts | 89° |
| 2026-05-04 01:54 | 5.45284 | -55.17740 | 251 ft | 166 kts | 88° |
| 2026-05-04 01:54 | 5.45273 | -55.16576 | 716 ft | 169 kts | 89° |
| 2026-05-04 01:55 | 5.45246 | -55.15406 | 1273 ft | 168 kts | 89° |
| 2026-05-04 01:55 | 5.45213 | -55.14287 | 1844 ft | 160 kts | 89° |
| 2026-05-04 01:55 | 5.45175 | -55.13155 | 2203 ft | 166 kts | 89° |
| 2026-05-04 01:55 | 5.45141 | -55.11917 | 2325 ft | 188 kts | 89° |
| 2026-05-04 01:56 | 5.45113 | -55.10587 | 2794 ft | 191 kts | 89° |
| 2026-05-04 01:56 | 5.45085 | -55.09287 | 3414 ft | 186 kts | 89° |
| 2026-05-04 01:56 | 5.45059 | -55.07991 | 3889 ft | 188 kts | 89° |
| 2026-05-04 01:56 | 5.45092 | -55.06683 | 4333 ft | 189 kts | 76° |
| 2026-05-04 01:57 | 5.45747 | -55.05497 | 4506 ft | 209 kts | 43° |
| 2026-05-04 01:57 | 5.47163 | -55.04844 | 4586 ft | 242 kts | 11° |
| 2026-05-04 01:57 | 5.48942 | -55.04891 | 4807 ft | 262 kts | 4° |
| 2026-05-04 01:57 | 5.50718 | -55.04653 | 5317 ft | 260 kts | 19° |
| 2026-05-04 01:58 | 5.52457 | -55.04139 | 5896 ft | 260 kts | 21° |
| 2026-05-04 01:58 | 5.54169 | -55.03558 | 6475 ft | 261 kts | 24° |
| 2026-05-04 01:58 | 5.55888 | -55.02898 | 7013 ft | 263 kts | 25° |
| 2026-05-04 01:58 | 5.57582 | -55.02214 | 7523 ft | 266 kts | 26° |
| 2026-05-04 01:59 | 5.59303 | -55.01505 | 8055 ft | 267 kts | 26° |
| 2026-05-04 01:59 | 5.61028 | -55.00776 | 8578 ft | 269 kts | 26° |
| 2026-05-04 01:59 | 5.62772 | -55.00034 | 9056 ft | 273 kts | 26° |
| 2026-05-04 01:59 | 5.64528 | -54.99284 | 9560 ft | 275 kts | 26° |
| 2026-05-04 02:00 | 5.66284 | -54.98534 | 10088 ft | 277 kts | 26° |
| 2026-05-04 02:00 | 5.68126 | -54.97742 | 10233 ft | 295 kts | 26° |
| 2026-05-04 02:00 | 5.70076 | -54.96904 | 10273 ft | 315 kts | 26° |
| 2026-05-04 02:00 | 5.72146 | -54.96017 | 10326 ft | 334 kts | 26° |
| 2026-05-04 02:01 | 5.74358 | -54.95065 | 10358 ft | 352 kts | 26° |
| 2026-05-04 02:01 | 5.76666 | -54.94076 | 10401 ft | 369 kts | 25° |
| 2026-05-04 02:01 | 5.79066 | -54.93048 | 10770 ft | 375 kts | 25° |
| 2026-05-04 02:01 | 5.81479 | -54.92016 | 11361 ft | 374 kts | 26° |
| 2026-05-04 02:02 | 5.83889 | -54.90981 | 11808 ft | 376 kts | 26° |
| 2026-05-04 02:02 | 5.86323 | -54.89938 | 12322 ft | 377 kts | 26° |
| 2026-05-04 02:02 | 5.88750 | -54.88891 | 12705 ft | 380 kts | 26° |
| 2026-05-04 02:02 | 5.91183 | -54.87848 | 13122 ft | 382 kts | 26° |
| 2026-05-04 02:03 | 5.93653 | -54.86787 | 13563 ft | 384 kts | 26° |
| 2026-05-04 02:03 | 5.96116 | -54.85728 | 13923 ft | 387 kts | 26° |
| 2026-05-04 02:03 | 5.98590 | -54.84665 | 14307 ft | 389 kts | 26° |
| 2026-05-04 02:03 | 6.01097 | -54.83580 | 14714 ft | 390 kts | 27° |
| 2026-05-04 02:04 | 6.03521 | -54.82293 | 15051 ft | 392 kts | 32° |
| 2026-05-04 02:04 | 6.05915 | -54.80951 | 15426 ft | 394 kts | 31° |
| 2026-05-04 02:04 | 6.08308 | -54.79621 | 15788 ft | 396 kts | 31° |
| 2026-05-04 02:04 | 6.10731 | -54.78265 | 16175 ft | 398 kts | 31° |
| 2026-05-04 02:05 | 6.13154 | -54.76910 | 16563 ft | 400 kts | 31° |
| 2026-05-04 02:05 | 6.15623 | -54.75528 | 16888 ft | 403 kts | 31° |
| 2026-05-04 02:05 | 6.18089 | -54.74147 | 17258 ft | 405 kts | 31° |
| 2026-05-04 02:05 | 6.20556 | -54.72764 | 17611 ft | 407 kts | 31° |
| 2026-05-04 02:06 | 6.23031 | -54.71378 | 17920 ft | 411 kts | 31° |
| 2026-05-04 02:06 | 6.25562 | -54.69959 | 18260 ft | 413 kts | 31° |
| 2026-05-04 02:06 | 6.28081 | -54.68546 | 18537 ft | 417 kts | 31° |
| 2026-05-04 02:06 | 6.30615 | -54.67127 | 18878 ft | 419 kts | 31° |
| 2026-05-04 02:07 | 6.33179 | -54.65688 | 19153 ft | 423 kts | 30° |
| 2026-05-04 02:07 | 6.35754 | -54.64246 | 19495 ft | 425 kts | 30° |
| 2026-05-04 02:07 | 6.38375 | -54.62776 | 19815 ft | 427 kts | 30° |
| 2026-05-04 02:07 | 6.40951 | -54.61332 | 20103 ft | 430 kts | 30° |
| 2026-05-04 02:08 | 6.43576 | -54.59859 | 20388 ft | 433 kts | 30° |
| 2026-05-04 02:08 | 6.46254 | -54.58357 | 20666 ft | 436 kts | 30° |
| 2026-05-04 02:08 | 6.48915 | -54.56865 | 20953 ft | 439 kts | 30° |
| 2026-05-04 02:08 | 6.51596 | -54.55360 | 21234 ft | 441 kts | 30° |
| 2026-05-04 02:09 | 6.54291 | -54.53848 | 21516 ft | 444 kts | 30° |
| 2026-05-04 02:09 | 6.56964 | -54.52348 | 21817 ft | 446 kts | 30° |
| 2026-05-04 02:09 | 6.59704 | -54.50810 | 22071 ft | 449 kts | 29° |
| 2026-05-04 02:09 | 6.62454 | -54.49266 | 22365 ft | 451 kts | 29° |
| 2026-05-04 02:10 | 6.65191 | -54.47729 | 22610 ft | 454 kts | 29° |
| 2026-05-04 02:10 | 6.67982 | -54.46164 | 22889 ft | 456 kts | 29° |
| 2026-05-04 02:10 | 6.70742 | -54.44614 | 23143 ft | 459 kts | 29° |
| 2026-05-04 02:10 | 6.73551 | -54.43036 | 23400 ft | 462 kts | 29° |
| 2026-05-04 02:11 | 6.76367 | -54.41454 | 23671 ft | 464 kts | 29° |
| 2026-05-04 02:11 | 6.79198 | -54.39863 | 23897 ft | 467 kts | 29° |
| 2026-05-04 02:11 | 6.82045 | -54.38264 | 24131 ft | 470 kts | 28° |
| 2026-05-04 02:11 | 6.84904 | -54.36657 | 24356 ft | 473 kts | 28° |
| 2026-05-04 02:12 | 6.87820 | -54.35020 | 24601 ft | 476 kts | 29° |
| 2026-05-04 02:12 | 6.90716 | -54.33391 | 24867 ft | 478 kts | 28° |
| 2026-05-04 02:12 | 6.93629 | -54.31752 | 25099 ft | 481 kts | 28° |
| 2026-05-04 02:12 | 6.96566 | -54.30101 | 25313 ft | 484 kts | 28° |
| 2026-05-04 02:13 | 6.99513 | -54.28445 | 25565 ft | 486 kts | 28° |
| 2026-05-04 02:13 | 7.02469 | -54.26782 | 25850 ft | 487 kts | 28° |
| 2026-05-04 02:13 | 7.05441 | -54.25109 | 26052 ft | 491 kts | 28° |
| 2026-05-04 02:13 | 7.08440 | -54.23423 | 26280 ft | 493 kts | 28° |
| 2026-05-04 02:14 | 7.11413 | -54.21751 | 26545 ft | 495 kts | 28° |
| 2026-05-04 02:14 | 7.14434 | -54.20051 | 26753 ft | 498 kts | 28° |
| 2026-05-04 02:14 | 7.17491 | -54.18330 | 26955 ft | 501 kts | 28° |
| 2026-05-04 02:14 | 7.20548 | -54.16610 | 27170 ft | 503 kts | 28° |
| 2026-05-04 02:15 | 7.23618 | -54.14881 | 27342 ft | 506 kts | 28° |
| 2026-05-04 02:15 | 7.26711 | -54.13137 | 27578 ft | 508 kts | 28° |
| 2026-05-04 02:15 | 7.29788 | -54.11407 | 27789 ft | 510 kts | 28° |
| 2026-05-04 02:15 | 7.32904 | -54.09650 | 27978 ft | 512 kts | 28° |
| 2026-05-04 02:16 | 7.36005 | -54.07900 | 28125 ft | 514 kts | 27° |
| 2026-05-04 02:16 | 7.39142 | -54.06137 | 28299 ft | 516 kts | 27° |
| 2026-05-04 02:16 | 7.42283 | -54.04366 | 28476 ft | 518 kts | 27° |
| 2026-05-04 02:16 | 7.45426 | -54.02593 | 28649 ft | 520 kts | 27° |
| 2026-05-04 02:17 | 7.48594 | -54.00808 | 28838 ft | 521 kts | 27° |
| 2026-05-04 02:17 | 7.51816 | -53.99066 | 28984 ft | 522 kts | 25° |
| 2026-05-04 02:17 | 7.55087 | -53.97424 | 29158 ft | 522 kts | 25° |
| 2026-05-04 02:17 | 7.58295 | -53.95779 | 29301 ft | 524 kts | 25° |
| 2026-05-04 02:18 | 7.61595 | -53.94099 | 29503 ft | 524 kts | 25° |
| 2026-05-04 02:18 | 7.64824 | -53.92450 | 29648 ft | 525 kts | 24° |
| 2026-05-04 02:18 | 7.68106 | -53.90775 | 29783 ft | 526 kts | 24° |
| 2026-05-04 02:18 | 7.71385 | -53.89102 | 29942 ft | 527 kts | 24° |
| 2026-05-04 02:19 | 7.74670 | -53.87424 | 30058 ft | 528 kts | 24° |
| 2026-05-04 02:19 | 7.77927 | -53.85764 | 30167 ft | 529 kts | 24° |
| 2026-05-04 02:19 | 7.84546 | -53.82382 | 30401 ft | 532 kts | 24° |
| 2026-05-04 02:20 | 7.91156 | -53.79005 | 30630 ft | 533 kts | 24° |
| 2026-05-04 02:20 | 7.94496 | -53.77293 | 30739 ft | 534 kts | 24° |
| 2026-05-04 02:20 | 7.97830 | -53.75592 | 30830 ft | 535 kts | 24° |
| 2026-05-04 02:21 | 8.04453 | -53.72205 | 31096 ft | 534 kts | 24° |
| 2026-05-04 02:21 | 8.07776 | -53.70502 | 31260 ft | 534 kts | 24° |
| 2026-05-04 02:21 | 8.11093 | -53.68806 | 31461 ft | 532 kts | 24° |
| 2026-05-04 02:22 | 8.14362 | -53.67132 | 31711 ft | 530 kts | 24° |
| 2026-05-04 02:22 | 8.17659 | -53.65445 | 31826 ft | 531 kts | 24° |
| 2026-05-04 02:22 | 8.20996 | -53.63737 | 32039 ft | 530 kts | 24° |
| 2026-05-04 02:22 | 8.24287 | -53.62051 | 32184 ft | 530 kts | 24° |
| 2026-05-04 02:23 | 8.27582 | -53.60364 | 32347 ft | 531 kts | 23° |
| 2026-05-04 02:23 | 8.30844 | -53.58696 | 32543 ft | 530 kts | 24° |
| 2026-05-04 02:23 | 8.34157 | -53.56994 | 32768 ft | 530 kts | 23° |
| 2026-05-04 02:23 | 8.37446 | -53.55311 | 32995 ft | 529 kts | 23° |
| 2026-05-04 02:24 | 8.40743 | -53.53620 | 33302 ft | 528 kts | 23° |
| 2026-05-04 02:24 | 8.43989 | -53.51958 | 33621 ft | 526 kts | 23° |
| 2026-05-04 02:24 | 8.47268 | -53.50275 | 34007 ft | 524 kts | 23° |
| 2026-05-04 02:24 | 8.50529 | -53.48605 | 34410 ft | 522 kts | 23° |
| 2026-05-04 02:25 | 8.53742 | -53.46954 | 34752 ft | 521 kts | 23° |
| 2026-05-04 02:25 | 8.56952 | -53.45306 | 35025 ft | 512 kts | 23° |
| 2026-05-04 02:25 | 8.63321 | -53.42041 | 35006 ft | 512 kts | 23° |
| 2026-05-04 02:26 | 8.69763 | -53.38734 | 35001 ft | 512 kts | 23° |
| 2026-05-04 02:26 | 8.76189 | -53.35434 | 35003 ft | 512 kts | 22° |
| 2026-05-04 02:27 | 8.82609 | -53.32135 | 34999 ft | 511 kts | 23° |
| 2026-05-04 02:27 | 8.88927 | -53.28888 | 35006 ft | 510 kts | 22° |
| 2026-05-04 02:28 | 8.95270 | -53.25628 | 35005 ft | 510 kts | 22° |
| 2026-05-04 02:28 | 9.01618 | -53.22361 | 35007 ft | 509 kts | 22° |
| 2026-05-04 02:29 | 9.07976 | -53.19093 | 35007 ft | 509 kts | 22° |
| 2026-05-04 02:29 | 9.14307 | -53.15836 | 35008 ft | 509 kts | 23° |
| 2026-05-04 02:30 | 9.20632 | -53.12575 | 35009 ft | 509 kts | 23° |
| 2026-05-04 02:30 | 9.27001 | -53.09295 | 35017 ft | 509 kts | 23° |
| 2026-05-04 02:31 | 9.33307 | -53.06047 | 35011 ft | 509 kts | 23° |
| 2026-05-04 02:31 | 9.39699 | -53.02750 | 35007 ft | 509 kts | 23° |
| 2026-05-04 02:32 | 9.45870 | -52.99194 | 35011 ft | 514 kts | 33° |
| 2026-05-04 02:32 | 9.51455 | -52.94623 | 35009 ft | 515 kts | 36° |
| 2026-05-04 02:33 | 9.57025 | -52.90009 | 35009 ft | 516 kts | 36° |
| 2026-05-04 02:33 | 9.62583 | -52.85383 | 35007 ft | 516 kts | 37° |
| 2026-05-04 02:34 | 9.68120 | -52.80770 | 35014 ft | 516 kts | 36° |
| 2026-05-04 02:34 | 9.73722 | -52.76099 | 35015 ft | 516 kts | 36° |
| 2026-05-04 02:35 | 9.79258 | -52.71482 | 35020 ft | 517 kts | 37° |
| 2026-05-04 02:35 | 9.84827 | -52.66837 | 35014 ft | 517 kts | 37° |
| 2026-05-04 02:36 | 9.90403 | -52.62182 | 35013 ft | 518 kts | 37° |
| 2026-05-04 02:36 | 9.95986 | -52.57520 | 35017 ft | 518 kts | 37° |
| 2026-05-04 02:37 | 10.01546 | -52.52873 | 35012 ft | 518 kts | 37° |
| 2026-05-04 02:37 | 10.07141 | -52.48194 | 35015 ft | 518 kts | 37° |
| 2026-05-04 02:38 | 10.12704 | -52.43544 | 35013 ft | 519 kts | 37° |
| 2026-05-04 02:38 | 10.18280 | -52.38878 | 35016 ft | 519 kts | 37° |
| 2026-05-04 02:39 | 10.23856 | -52.34209 | 35016 ft | 519 kts | 37° |
| 2026-05-04 02:39 | 10.29416 | -52.29555 | 35012 ft | 518 kts | 37° |
| 2026-05-04 02:40 | 10.35003 | -52.24870 | 35014 ft | 518 kts | 37° |
| 2026-05-04 02:40 | 10.40554 | -52.20221 | 35014 ft | 518 kts | 37° |
| 2026-05-04 02:41 | 10.46112 | -52.15558 | 35019 ft | 518 kts | 37° |
| 2026-05-04 02:41 | 10.51646 | -52.10916 | 35015 ft | 518 kts | 37° |
| 2026-05-04 02:42 | 10.57203 | -52.06250 | 35020 ft | 518 kts | 37° |
| 2026-05-04 02:42 | 10.62760 | -52.01582 | 35019 ft | 518 kts | 37° |
| 2026-05-04 02:43 | 10.68305 | -51.96922 | 35023 ft | 518 kts | 37° |
| 2026-05-04 02:43 | 10.73890 | -51.92226 | 35026 ft | 518 kts | 37° |
| 2026-05-04 02:44 | 10.79429 | -51.87567 | 35026 ft | 518 kts | 37° |
| 2026-05-04 02:44 | 10.85000 | -51.82880 | 35030 ft | 518 kts | 37° |
| 2026-05-04 02:45 | 10.90571 | -51.78192 | 35030 ft | 518 kts | 37° |
| 2026-05-04 02:45 | 10.96176 | -51.73470 | 35031 ft | 518 kts | 37° |
| 2026-05-04 02:46 | 11.01724 | -51.68793 | 35033 ft | 518 kts | 37° |
| 2026-05-04 02:46 | 11.07278 | -51.64109 | 35036 ft | 519 kts | 37° |
| 2026-05-04 02:47 | 11.12870 | -51.59390 | 35037 ft | 519 kts | 37° |
| 2026-05-04 02:47 | 11.18420 | -51.54706 | 35035 ft | 519 kts | 37° |
| 2026-05-04 02:48 | 11.23993 | -51.50000 | 35033 ft | 519 kts | 37° |
| 2026-05-04 02:48 | 11.29562 | -51.45294 | 35033 ft | 519 kts | 37° |
| 2026-05-04 02:49 | 11.35116 | -51.40601 | 35034 ft | 519 kts | 37° |
| 2026-05-04 02:49 | 11.40669 | -51.35901 | 35030 ft | 519 kts | 37° |
| 2026-05-04 02:50 | 11.46207 | -51.31214 | 35027 ft | 519 kts | 37° |
| 2026-05-04 02:50 | 11.51774 | -51.26502 | 35023 ft | 518 kts | 37° |
| 2026-05-04 02:51 | 11.57326 | -51.21797 | 35022 ft | 517 kts | 37° |
| 2026-05-04 02:51 | 11.62870 | -51.17097 | 35020 ft | 517 kts | 37° |
| 2026-05-04 02:52 | 11.68407 | -51.12399 | 35021 ft | 516 kts | 37° |
| 2026-05-04 02:52 | 11.73930 | -51.07714 | 35020 ft | 516 kts | 37° |
| 2026-05-04 02:53 | 11.79434 | -51.03041 | 35024 ft | 516 kts | 37° |
| 2026-05-04 02:53 | 11.84974 | -50.98336 | 35028 ft | 516 kts | 37° |
| 2026-05-04 02:54 | 11.90509 | -50.93631 | 35037 ft | 515 kts | 37° |
| 2026-05-04 02:54 | 11.96025 | -50.88941 | 35048 ft | 515 kts | 37° |
| 2026-05-04 02:55 | 12.04262 | -50.81934 | 35050 ft | 515 kts | 37° |
| 2026-05-04 02:56 | 12.09816 | -50.77203 | 35050 ft | 515 kts | 37° |
| 2026-05-04 02:56 | 12.15329 | -50.72505 | 35055 ft | 515 kts | 37° |
| 2026-05-04 02:57 | 12.20851 | -50.67795 | 35053 ft | 515 kts | 37° |
| 2026-05-04 02:57 | 12.26368 | -50.63089 | 35056 ft | 515 kts | 37° |
| 2026-05-04 02:58 | 12.31863 | -50.58400 | 35057 ft | 516 kts | 37° |
| 2026-05-04 02:58 | 12.37379 | -50.53690 | 35055 ft | 516 kts | 37° |
| 2026-05-04 02:59 | 12.42942 | -50.48938 | 35057 ft | 516 kts | 37° |
| 2026-05-04 02:59 | 12.48462 | -50.44217 | 35057 ft | 516 kts | 37° |
| 2026-05-04 03:00 | 12.53978 | -50.39498 | 35059 ft | 517 kts | 37° |
| 2026-05-04 03:00 | 12.59493 | -50.34779 | 35057 ft | 517 kts | 37° |
| 2026-05-04 03:01 | 12.65049 | -50.30019 | 35048 ft | 516 kts | 37° |
| 2026-05-04 03:01 | 12.70524 | -50.25327 | 35050 ft | 516 kts | 37° |
| 2026-05-04 03:02 | 12.76057 | -50.20583 | 35046 ft | 515 kts | 37° |
| 2026-05-04 03:02 | 12.81563 | -50.15860 | 35048 ft | 515 kts | 37° |
| 2026-05-04 03:03 | 12.87078 | -50.11125 | 35049 ft | 515 kts | 37° |
| 2026-05-04 03:03 | 12.92561 | -50.06415 | 35050 ft | 516 kts | 37° |
| 2026-05-04 03:04 | 12.98097 | -50.01657 | 35052 ft | 516 kts | 37° |
| 2026-05-04 03:04 | 13.03724 | -49.97128 | 35057 ft | 514 kts | 34° |
| 2026-05-04 03:05 | 13.09460 | -49.92670 | 35055 ft | 514 kts | 34° |
| 2026-05-04 03:05 | 13.15175 | -49.88225 | 35052 ft | 514 kts | 34° |
| 2026-05-04 03:06 | 13.20898 | -49.83772 | 35056 ft | 514 kts | 34° |
| 2026-05-04 03:06 | 13.26578 | -49.79350 | 35057 ft | 514 kts | 34° |
| 2026-05-04 03:07 | 13.32274 | -49.74915 | 35056 ft | 515 kts | 34° |
| 2026-05-04 03:07 | 13.37985 | -49.70464 | 35053 ft | 514 kts | 34° |
| 2026-05-04 03:08 | 13.43693 | -49.66013 | 35048 ft | 514 kts | 34° |
| 2026-05-04 03:08 | 13.49407 | -49.61550 | 35050 ft | 514 kts | 34° |
| 2026-05-04 03:09 | 13.55093 | -49.57113 | 35051 ft | 514 kts | 34° |
| 2026-05-04 03:09 | 13.60799 | -49.52653 | 35051 ft | 514 kts | 34° |
| 2026-05-04 03:10 | 13.66504 | -49.48192 | 35052 ft | 514 kts | 34° |
| 2026-05-04 03:10 | 13.72175 | -49.43756 | 35051 ft | 514 kts | 34° |
| 2026-05-04 03:11 | 13.77901 | -49.39274 | 35051 ft | 514 kts | 34° |
| 2026-05-04 03:11 | 13.83606 | -49.34803 | 35055 ft | 515 kts | 34° |
| 2026-05-04 03:12 | 13.89318 | -49.30328 | 35048 ft | 514 kts | 34° |
| 2026-05-04 03:12 | 13.95025 | -49.25853 | 35046 ft | 514 kts | 34° |
| 2026-05-04 03:13 | 14.00717 | -49.21386 | 35047 ft | 514 kts | 34° |
| 2026-05-04 03:13 | 14.06408 | -49.16917 | 35046 ft | 514 kts | 34° |
| 2026-05-04 03:14 | 14.12130 | -49.12421 | 35052 ft | 514 kts | 34° |
| 2026-05-04 03:14 | 14.17831 | -49.07934 | 35050 ft | 514 kts | 34° |
| 2026-05-04 03:15 | 14.23515 | -49.03464 | 35050 ft | 514 kts | 34° |
| 2026-05-04 03:15 | 14.29206 | -48.98982 | 35054 ft | 513 kts | 34° |
| 2026-05-04 03:16 | 14.34888 | -48.94506 | 35052 ft | 513 kts | 34° |
| 2026-05-04 03:16 | 14.40554 | -48.90039 | 35054 ft | 512 kts | 34° |
| 2026-05-04 03:17 | 14.46254 | -48.85545 | 35049 ft | 512 kts | 34° |
| 2026-05-04 03:17 | 14.51903 | -48.81084 | 35051 ft | 511 kts | 34° |
| 2026-05-04 03:18 | 14.57571 | -48.76605 | 35055 ft | 511 kts | 34° |
| 2026-05-04 03:18 | 14.63230 | -48.72135 | 35055 ft | 511 kts | 34° |
| 2026-05-04 03:19 | 14.68880 | -48.67662 | 35055 ft | 511 kts | 34° |
| 2026-05-04 03:19 | 14.74537 | -48.63185 | 35058 ft | 511 kts | 34° |
| 2026-05-04 03:20 | 14.80174 | -48.58722 | 35060 ft | 511 kts | 34° |
| 2026-05-04 03:20 | 14.85820 | -48.54248 | 35059 ft | 511 kts | 34° |
| 2026-05-04 03:21 | 14.91431 | -48.49795 | 35059 ft | 511 kts | 34° |
| 2026-05-04 03:21 | 14.97097 | -48.45300 | 35067 ft | 510 kts | 34° |
| 2026-05-04 03:22 | 15.02726 | -48.40827 | 35073 ft | 510 kts | 34° |
| 2026-05-04 03:22 | 15.08383 | -48.36333 | 35076 ft | 510 kts | 34° |
| 2026-05-04 03:23 | 15.13986 | -48.31877 | 35070 ft | 510 kts | 34° |
| 2026-05-04 03:23 | 15.19640 | -48.27375 | 35068 ft | 509 kts | 35° |
| 2026-05-04 03:24 | 15.25264 | -48.22900 | 35067 ft | 509 kts | 35° |
| 2026-05-04 03:24 | 15.30870 | -48.18430 | 35068 ft | 508 kts | 34° |
| 2026-05-04 03:25 | 15.36468 | -48.13966 | 35072 ft | 508 kts | 34° |
| 2026-05-04 03:25 | 15.42061 | -48.09503 | 35071 ft | 508 kts | 35° |
| 2026-05-04 03:26 | 15.47687 | -48.05008 | 35069 ft | 507 kts | 35° |
| 2026-05-04 03:26 | 15.53333 | -48.00497 | 35075 ft | 507 kts | 35° |
| 2026-05-04 03:27 | 15.58908 | -47.96041 | 35072 ft | 507 kts | 35° |
| 2026-05-04 03:27 | 15.64497 | -47.91569 | 35072 ft | 506 kts | 35° |
| 2026-05-04 03:28 | 15.70075 | -47.87100 | 35073 ft | 506 kts | 35° |
| 2026-05-04 03:28 | 15.75674 | -47.82610 | 35071 ft | 505 kts | 35° |
| 2026-05-04 03:29 | 15.81229 | -47.78160 | 35070 ft | 505 kts | 35° |
| 2026-05-04 03:29 | 15.86820 | -47.73670 | 35069 ft | 505 kts | 35° |
| 2026-05-04 03:30 | 15.92357 | -47.69224 | 35074 ft | 505 kts | 35° |
| 2026-05-04 03:30 | 15.97927 | -47.64746 | 35069 ft | 505 kts | 36° |
| 2026-05-04 03:31 | 16.03491 | -47.60271 | 35069 ft | 505 kts | 36° |
| 2026-05-04 03:31 | 16.09033 | -47.55811 | 35068 ft | 504 kts | 36° |
| 2026-05-04 03:32 | 16.14605 | -47.51323 | 35075 ft | 504 kts | 36° |
| 2026-05-04 03:32 | 16.20169 | -47.46837 | 35072 ft | 504 kts | 36° |
| 2026-05-04 03:33 | 16.25718 | -47.42362 | 35079 ft | 504 kts | 36° |
| 2026-05-04 03:33 | 16.31219 | -47.37918 | 35075 ft | 504 kts | 36° |
| 2026-05-04 03:34 | 16.36772 | -47.33432 | 35074 ft | 504 kts | 36° |
| 2026-05-04 03:34 | 16.42336 | -47.28935 | 35072 ft | 503 kts | 36° |
| 2026-05-04 03:35 | 16.47863 | -47.24464 | 35078 ft | 503 kts | 36° |
| 2026-05-04 03:35 | 16.53404 | -47.19976 | 35078 ft | 503 kts | 36° |
| 2026-05-04 03:36 | 16.58948 | -47.15486 | 35080 ft | 503 kts | 36° |
| 2026-05-04 03:36 | 16.64475 | -47.11004 | 35083 ft | 503 kts | 36° |
| 2026-05-04 03:37 | 16.69992 | -47.06527 | 35088 ft | 503 kts | 36° |
| 2026-05-04 03:37 | 16.75507 | -47.02047 | 35087 ft | 503 kts | 36° |
| 2026-05-04 03:38 | 16.81030 | -46.97559 | 35087 ft | 502 kts | 36° |
| 2026-05-04 03:38 | 16.86526 | -46.93090 | 35085 ft | 502 kts | 36° |
| 2026-05-04 03:39 | 16.92032 | -46.88609 | 35085 ft | 502 kts | 36° |
| 2026-05-04 03:39 | 16.97580 | -46.84090 | 35086 ft | 502 kts | 36° |
| 2026-05-04 03:40 | 17.03062 | -46.79620 | 35089 ft | 502 kts | 36° |
| 2026-05-04 03:40 | 17.08580 | -46.75119 | 35084 ft | 502 kts | 36° |
| 2026-05-04 03:41 | 17.14095 | -46.70615 | 35086 ft | 503 kts | 36° |
| 2026-05-04 03:41 | 17.19591 | -46.66124 | 35087 ft | 503 kts | 36° |
| 2026-05-04 03:42 | 17.25122 | -46.61602 | 35088 ft | 503 kts | 36° |
| 2026-05-04 03:42 | 17.30618 | -46.57105 | 35088 ft | 503 kts | 36° |
| 2026-05-04 03:43 | 17.36155 | -46.52570 | 35088 ft | 503 kts | 36° |
| 2026-05-04 03:43 | 17.41653 | -46.48063 | 35087 ft | 503 kts | 36° |
| 2026-05-04 03:44 | 17.47201 | -46.43513 | 35088 ft | 504 kts | 36° |
| 2026-05-04 03:44 | 17.52702 | -46.38997 | 35088 ft | 504 kts | 36° |
| 2026-05-04 03:45 | 17.58242 | -46.34445 | 35087 ft | 504 kts | 36° |
| 2026-05-04 03:45 | 17.63738 | -46.29927 | 35083 ft | 504 kts | 36° |
| 2026-05-04 03:46 | 17.69256 | -46.25386 | 35086 ft | 504 kts | 36° |
| 2026-05-04 03:46 | 17.74756 | -46.20856 | 35085 ft | 504 kts | 36° |
| 2026-05-04 03:47 | 17.80307 | -46.16281 | 35084 ft | 504 kts | 36° |
| 2026-05-04 03:47 | 17.85814 | -46.11737 | 35088 ft | 504 kts | 36° |
| 2026-05-04 03:48 | 17.91354 | -46.07166 | 35086 ft | 504 kts | 36° |
| 2026-05-04 03:48 | 17.96904 | -46.02580 | 35087 ft | 504 kts | 36° |
| 2026-05-04 03:49 | 18.02191 | -45.97793 | 35097 ft | 505 kts | 41° |
| 2026-05-04 03:49 | 18.07339 | -45.92727 | 35092 ft | 506 kts | 41° |
| 2026-05-04 03:50 | 18.12460 | -45.87649 | 35094 ft | 506 kts | 41° |
| 2026-05-04 03:50 | 18.17561 | -45.82582 | 35093 ft | 506 kts | 41° |
| 2026-05-04 03:51 | 18.22701 | -45.77468 | 35093 ft | 506 kts | 41° |
| 2026-05-04 03:51 | 18.27806 | -45.72385 | 35093 ft | 507 kts | 41° |
| 2026-05-04 03:52 | 18.32954 | -45.67255 | 35092 ft | 507 kts | 41° |
| 2026-05-04 03:52 | 18.38071 | -45.62151 | 35093 ft | 507 kts | 41° |
| 2026-05-04 03:53 | 18.43215 | -45.57014 | 35094 ft | 508 kts | 41° |
| 2026-05-04 03:53 | 18.48327 | -45.51906 | 35093 ft | 508 kts | 41° |
| 2026-05-04 03:54 | 18.53500 | -45.46733 | 35094 ft | 509 kts | 41° |
| 2026-05-04 03:54 | 18.58625 | -45.41603 | 35094 ft | 509 kts | 41° |
| 2026-05-04 03:55 | 18.63765 | -45.36454 | 35095 ft | 509 kts | 41° |
| 2026-05-04 03:55 | 18.68891 | -45.31314 | 35088 ft | 509 kts | 41° |
| 2026-05-04 03:56 | 18.74037 | -45.26148 | 35088 ft | 509 kts | 41° |
| 2026-05-04 03:56 | 18.79163 | -45.21000 | 35088 ft | 510 kts | 41° |
| 2026-05-04 03:57 | 18.84263 | -45.15873 | 35090 ft | 510 kts | 41° |
| 2026-05-04 03:57 | 18.89403 | -45.10700 | 35090 ft | 509 kts | 41° |
| 2026-05-04 03:58 | 18.97123 | -45.02923 | 35089 ft | 510 kts | 41° |
| 2026-05-04 03:58 | 19.02300 | -44.97823 | 35091 ft | 509 kts | 39° |
| 2026-05-04 03:59 | 19.07560 | -44.92807 | 35090 ft | 510 kts | 39° |
| 2026-05-04 03:59 | 19.12818 | -44.87783 | 35092 ft | 510 kts | 39° |
| 2026-05-04 04:00 | 19.18074 | -44.82755 | 35092 ft | 510 kts | 39° |
| 2026-05-04 04:00 | 19.23333 | -44.77722 | 35092 ft | 510 kts | 39° |
| 2026-05-04 04:01 | 19.28587 | -44.72689 | 35092 ft | 510 kts | 39° |
| 2026-05-04 04:01 | 19.33849 | -44.67643 | 35094 ft | 511 kts | 39° |
| 2026-05-04 04:02 | 19.39125 | -44.62579 | 35093 ft | 512 kts | 39° |
| 2026-05-04 04:02 | 19.44391 | -44.57521 | 35094 ft | 512 kts | 39° |
| 2026-05-04 04:03 | 19.49674 | -44.52441 | 35095 ft | 513 kts | 39° |
| 2026-05-04 04:03 | 19.54947 | -44.47366 | 35094 ft | 513 kts | 39° |
| 2026-05-04 04:04 | 19.60232 | -44.42274 | 35095 ft | 513 kts | 39° |
| 2026-05-04 04:04 | 19.65554 | -44.37145 | 35096 ft | 513 kts | 39° |
| 2026-05-04 04:05 | 19.70867 | -44.32014 | 35085 ft | 514 kts | 40° |
| 2026-05-04 04:05 | 19.76184 | -44.26879 | 35089 ft | 514 kts | 39° |
| 2026-05-04 04:06 | 19.81488 | -44.21751 | 35090 ft | 514 kts | 39° |
| 2026-05-04 04:06 | 19.86770 | -44.16639 | 35090 ft | 515 kts | 39° |
| 2026-05-04 04:07 | 19.92073 | -44.11503 | 35089 ft | 515 kts | 39° |
| 2026-05-04 04:07 | 19.97352 | -44.06383 | 35092 ft | 515 kts | 39° |
| 2026-05-04 04:08 | 20.02665 | -44.01228 | 35091 ft | 515 kts | 39° |
| 2026-05-04 04:08 | 20.07927 | -43.96115 | 35090 ft | 515 kts | 39° |
| 2026-05-04 04:09 | 20.13239 | -43.90949 | 35090 ft | 515 kts | 39° |
| 2026-05-04 04:09 | 20.18559 | -43.85769 | 35089 ft | 516 kts | 39° |
| 2026-05-04 04:10 | 20.23857 | -43.80607 | 35090 ft | 516 kts | 39° |
| 2026-05-04 04:10 | 20.29163 | -43.75433 | 35088 ft | 516 kts | 39° |
| 2026-05-04 04:11 | 20.34473 | -43.70249 | 35090 ft | 517 kts | 39° |
| 2026-05-04 04:11 | 20.39782 | -43.65062 | 35091 ft | 517 kts | 39° |
| 2026-05-04 04:12 | 20.45062 | -43.59897 | 35089 ft | 517 kts | 39° |
| 2026-05-04 04:12 | 20.50356 | -43.54714 | 35089 ft | 517 kts | 39° |
| 2026-05-04 04:13 | 20.55686 | -43.49490 | 35087 ft | 517 kts | 39° |
| 2026-05-04 04:13 | 20.60999 | -43.44278 | 35088 ft | 518 kts | 39° |
| 2026-05-04 04:14 | 20.66301 | -43.39072 | 35088 ft | 518 kts | 39° |
| 2026-05-04 04:14 | 20.71613 | -43.33852 | 35082 ft | 518 kts | 39° |
| 2026-05-04 04:15 | 20.76880 | -43.28667 | 35081 ft | 518 kts | 39° |
| 2026-05-04 04:15 | 20.82208 | -43.23420 | 35085 ft | 518 kts | 39° |
| 2026-05-04 04:16 | 20.87517 | -43.18183 | 35086 ft | 518 kts | 39° |
| 2026-05-04 04:16 | 20.92809 | -43.12962 | 35088 ft | 517 kts | 39° |
| 2026-05-04 04:17 | 20.98100 | -43.07739 | 35086 ft | 518 kts | 39° |
| 2026-05-04 04:17 | 21.03381 | -43.02517 | 35091 ft | 518 kts | 39° |
| 2026-05-04 04:18 | 21.08680 | -42.97270 | 35091 ft | 518 kts | 39° |
| 2026-05-04 04:18 | 21.13959 | -42.92037 | 35094 ft | 518 kts | 39° |
| 2026-05-04 04:19 | 21.19239 | -42.86801 | 35091 ft | 517 kts | 39° |
| 2026-05-04 04:19 | 21.24488 | -42.81587 | 35090 ft | 516 kts | 39° |
| 2026-05-04 04:20 | 21.29758 | -42.76353 | 35088 ft | 515 kts | 39° |
| 2026-05-04 04:20 | 21.35001 | -42.71136 | 35089 ft | 515 kts | 39° |
| 2026-05-04 04:21 | 21.40278 | -42.65883 | 35095 ft | 516 kts | 39° |
| 2026-05-04 04:21 | 21.45509 | -42.60665 | 35091 ft | 515 kts | 39° |
| 2026-05-04 04:22 | 21.50767 | -42.55415 | 35094 ft | 514 kts | 39° |
| 2026-05-04 04:22 | 21.55998 | -42.50191 | 35094 ft | 514 kts | 39° |
| 2026-05-04 04:23 | 21.61241 | -42.44946 | 35093 ft | 514 kts | 39° |
| 2026-05-04 04:23 | 21.66456 | -42.39725 | 35094 ft | 513 kts | 39° |
| 2026-05-04 04:24 | 21.71681 | -42.34489 | 35094 ft | 513 kts | 39° |
| 2026-05-04 04:24 | 21.76889 | -42.29263 | 35087 ft | 513 kts | 39° |
| 2026-05-04 04:25 | 21.82126 | -42.24005 | 35086 ft | 512 kts | 39° |
| 2026-05-04 04:25 | 21.87289 | -42.18816 | 35081 ft | 509 kts | 39° |
| 2026-05-04 04:26 | 21.92501 | -42.13572 | 35086 ft | 509 kts | 40° |
| 2026-05-04 04:26 | 21.97693 | -42.08339 | 35091 ft | 510 kts | 40° |
| 2026-05-04 04:27 | 22.02898 | -42.03087 | 35088 ft | 511 kts | 39° |
| 2026-05-04 04:27 | 22.08108 | -41.97831 | 35088 ft | 511 kts | 39° |
| 2026-05-04 04:28 | 22.13271 | -41.92614 | 35094 ft | 511 kts | 39° |
| 2026-05-04 04:28 | 22.18458 | -41.87364 | 35093 ft | 512 kts | 39° |
| 2026-05-04 04:29 | 22.23656 | -41.82100 | 35085 ft | 509 kts | 39° |
| 2026-05-04 04:29 | 22.28819 | -41.76867 | 35079 ft | 510 kts | 39° |
| 2026-05-04 04:30 | 22.33979 | -41.71630 | 35082 ft | 510 kts | 39° |
| 2026-05-04 04:30 | 22.39166 | -41.66361 | 35082 ft | 510 kts | 40° |
| 2026-05-04 04:31 | 22.44324 | -41.61113 | 35079 ft | 507 kts | 40° |
| 2026-05-04 04:31 | 22.49419 | -41.55928 | 35087 ft | 507 kts | 39° |
| 2026-05-04 04:32 | 22.54588 | -41.50661 | 35081 ft | 508 kts | 40° |
| 2026-05-04 04:32 | 22.59723 | -41.45419 | 35079 ft | 509 kts | 40° |
| 2026-05-04 04:33 | 22.64894 | -41.40135 | 35077 ft | 508 kts | 40° |
| 2026-05-04 04:33 | 22.70036 | -41.34877 | 35079 ft | 508 kts | 40° |
| 2026-05-04 04:34 | 22.75203 | -41.29588 | 35074 ft | 508 kts | 40° |
| 2026-05-04 04:34 | 22.80345 | -41.24320 | 35069 ft | 507 kts | 40° |
| 2026-05-04 04:35 | 22.85455 | -41.19076 | 35070 ft | 507 kts | 40° |
| 2026-05-04 04:35 | 22.90578 | -41.13817 | 35071 ft | 508 kts | 40° |
| 2026-05-04 04:36 | 22.95725 | -41.08526 | 35069 ft | 506 kts | 40° |
| 2026-05-04 04:36 | 23.00842 | -41.03258 | 35071 ft | 507 kts | 40° |
| 2026-05-04 04:37 | 23.11058 | -40.92723 | 35073 ft | 505 kts | 40° |
| 2026-05-04 04:38 | 23.16181 | -40.87433 | 35072 ft | 504 kts | 40° |
| 2026-05-04 04:38 | 23.21271 | -40.82171 | 35077 ft | 505 kts | 40° |
| 2026-05-04 04:39 | 23.26365 | -40.76902 | 35074 ft | 504 kts | 40° |
| 2026-05-04 04:39 | 23.31444 | -40.71636 | 35073 ft | 502 kts | 40° |
| 2026-05-04 04:40 | 23.36515 | -40.66375 | 35079 ft | 502 kts | 40° |
| 2026-05-04 04:40 | 23.41541 | -40.61157 | 35078 ft | 501 kts | 40° |
| 2026-05-04 04:41 | 23.46586 | -40.55915 | 35074 ft | 502 kts | 40° |
| 2026-05-04 04:41 | 23.51625 | -40.50670 | 35073 ft | 500 kts | 40° |
| 2026-05-04 04:42 | 23.56661 | -40.45419 | 35072 ft | 500 kts | 40° |
| 2026-05-04 04:42 | 23.61674 | -40.40194 | 35072 ft | 497 kts | 40° |
| 2026-05-04 04:43 | 23.66677 | -40.34971 | 35076 ft | 498 kts | 40° |
| 2026-05-04 04:43 | 23.71709 | -40.29710 | 35069 ft | 498 kts | 40° |
| 2026-05-04 04:44 | 23.76687 | -40.24500 | 35067 ft | 499 kts | 40° |
| 2026-05-04 04:44 | 23.81718 | -40.19226 | 35068 ft | 497 kts | 41° |
| 2026-05-04 04:45 | 23.86706 | -40.13995 | 35069 ft | 496 kts | 40° |
| 2026-05-04 04:47 | 24.03845 | -39.95446 | 35071 ft | 495 kts | 44° |
| 2026-05-04 04:47 | 24.08532 | -39.89904 | 35067 ft | 496 kts | 44° |
| 2026-05-04 04:48 | 24.13182 | -39.84380 | 35075 ft | 496 kts | 44° |
| 2026-05-04 04:49 | 24.24852 | -39.70498 | 35072 ft | 495 kts | 44° |
| 2026-05-04 04:49 | 24.29488 | -39.64968 | 35072 ft | 495 kts | 44° |
| 2026-05-04 04:50 | 24.34164 | -39.59385 | 35063 ft | 494 kts | 44° |
| 2026-05-04 04:50 | 24.38799 | -39.53849 | 35065 ft | 494 kts | 43° |
| 2026-05-04 04:51 | 24.43448 | -39.48284 | 35066 ft | 493 kts | 43° |
| 2026-05-04 04:51 | 24.48033 | -39.42789 | 35060 ft | 491 kts | 43° |
| 2026-05-04 04:52 | 24.52655 | -39.37250 | 35060 ft | 492 kts | 43° |
| 2026-05-04 04:52 | 24.57283 | -39.31687 | 35055 ft | 493 kts | 44° |
| 2026-05-04 04:53 | 24.61892 | -39.26151 | 35052 ft | 493 kts | 44° |
| 2026-05-04 04:53 | 24.66509 | -39.20594 | 35050 ft | 493 kts | 43° |
| 2026-05-04 04:54 | 24.71132 | -39.15019 | 35065 ft | 492 kts | 43° |
| 2026-05-04 04:54 | 24.75724 | -39.09483 | 35068 ft | 491 kts | 43° |
| 2026-05-04 04:55 | 24.80312 | -39.03939 | 35064 ft | 489 kts | 43° |
| 2026-05-04 04:55 | 24.84885 | -38.98408 | 35068 ft | 490 kts | 43° |
| 2026-05-04 04:56 | 24.89494 | -38.92830 | 35062 ft | 490 kts | 43° |
| 2026-05-04 04:56 | 24.94045 | -38.87310 | 35063 ft | 490 kts | 43° |
| 2026-05-04 04:57 | 24.98622 | -38.81753 | 35061 ft | 489 kts | 43° |
| 2026-05-04 04:57 | 25.03182 | -38.76216 | 35056 ft | 486 kts | 43° |
| 2026-05-04 04:58 | 25.07731 | -38.70683 | 35054 ft | 486 kts | 43° |
| 2026-05-04 04:58 | 25.12273 | -38.65149 | 35060 ft | 486 kts | 43° |
| 2026-05-04 04:59 | 25.16812 | -38.59615 | 35059 ft | 487 kts | 42° |
| 2026-05-04 04:59 | 25.21350 | -38.54072 | 35055 ft | 486 kts | 42° |
| 2026-05-04 05:00 | 25.25904 | -38.48505 | 35053 ft | 486 kts | 42° |
| 2026-05-04 05:01 | 25.32664 | -38.40231 | 35052 ft | 485 kts | 42° |
| 2026-05-04 05:01 | 25.37190 | -38.34680 | 35040 ft | 483 kts | 42° |
| 2026-05-04 05:02 | 25.41682 | -38.29165 | 35034 ft | 483 kts | 42° |
| 2026-05-04 05:02 | 25.46163 | -38.23658 | 35042 ft | 484 kts | 42° |
| 2026-05-04 05:03 | 25.50673 | -38.18116 | 35045 ft | 485 kts | 42° |
| 2026-05-04 05:04 | 25.59649 | -38.07045 | 35026 ft | 481 kts | 42° |
| 2026-05-04 05:04 | 25.64139 | -38.01498 | 35030 ft | 482 kts | 41° |
| 2026-05-04 05:06 | 25.82034 | -37.79335 | 35030 ft | 482 kts | 41° |
| 2026-05-04 05:07 | 25.86482 | -37.73804 | 35024 ft | 483 kts | 41° |
| 2026-05-04 05:07 | 25.90960 | -37.68231 | 35027 ft | 483 kts | 41° |
| 2026-05-04 05:09 | 26.11064 | -37.43133 | 35042 ft | 482 kts | 41° |
| 2026-05-04 05:10 | 26.15536 | -37.37535 | 35040 ft | 483 kts | 40° |
| 2026-05-04 05:10 | 26.19995 | -37.31943 | 35026 ft | 484 kts | 41° |
| 2026-05-04 05:11 | 26.24445 | -37.26355 | 35028 ft | 484 kts | 41° |
| 2026-05-04 05:11 | 26.28898 | -37.20755 | 35022 ft | 484 kts | 41° |
| 2026-05-04 05:12 | 26.33372 | -37.15120 | 35022 ft | 484 kts | 41° |
| 2026-05-04 05:12 | 26.37823 | -37.09514 | 35023 ft | 485 kts | 41° |
| 2026-05-04 05:13 | 26.42280 | -37.03888 | 35027 ft | 484 kts | 41° |